Time;durP1;ratioP1;P1;durP2;ratioP2;P2;SDS_P1;SDS_P2;PMS_P1;PMS_P2;Temp;Humidity;BMP_temperature;BMP_pressure;BME280_temperature;BME280_humidity;BME280_pressure;Samples;Min_cycle;Max_cycle;Signal;HPM_P1;HPM_P2
2022/09/23 00:01:11;;;;;;;;;;;;;;;10.47;60.39;102042.19;4971412;28;19948;-52
2022/09/23 00:03:37;;;;;;;;;;;;;;;10.46;60.52;102045.72;4970415;28;19926;-53
2022/09/23 00:06:04;;;;;;;;;;;;;;;10.44;60.54;102039.66;4970936;28;19945;-53
2022/09/23 00:08:29;;;;;;;;;;;;;;;10.41;60.59;102045.88;4966798;28;19946;-54
2022/09/23 00:10:55;;;;;;;;;;;;;;;10.39;60.65;102036.31;4971081;28;20020;-51
2022/09/23 00:13:22;;;;;;;;;;;;;;;10.38;60.45;102035.47;4970234;28;20024;-53
2022/09/23 00:15:47;;;;;;;;;;;;;;;10.39;60.37;102028.41;4965964;28;20012;-55
2022/09/23 00:18:12;;;;;;;;;;;;;;;10.39;60.35;102031.94;4958434;28;20294;-54
2022/09/23 00:20:39;;;;;;;;;;;;;;;10.37;60.36;102029.31;4964116;28;19928;-54
2022/09/23 00:23:04;;;;;;;;;;;;;;;10.36;60.48;102026.75;4969043;28;19958;-55
2022/09/23 00:25:29;;;;;;;;;;;;;;;10.32;60.25;102026.00;4969908;28;20393;-55
2022/09/23 00:27:55;;;;;;;;;;;;;;;10.28;60.49;102019.13;4969995;28;20486;-52
2022/09/23 00:30:22;;;;;;;;;;;;;;;10.25;60.61;102021.00;4968913;28;19922;-54
2022/09/23 00:32:47;;;;;;;;;;;;;;;10.23;60.57;102021.06;4970932;28;19918;-54
2022/09/23 00:35:13;;;;;;;;;;;;;;;10.22;60.52;102024.59;4971096;28;20282;-52
2022/09/23 00:37:38;;;;;;;;;;;;;;;10.21;60.46;102022.88;4970727;28;20380;-54
2022/09/23 00:40:04;;;;;;;;;;;;;;;10.19;60.58;102011.56;4968601;28;19922;-52
2022/09/23 00:42:29;;;;;;;;;;;;;;;10.18;60.61;102017.75;4968817;28;20305;-54
2022/09/23 00:44:55;;;;;;;;;;;;;;;10.17;60.40;102016.03;4970232;28;19981;-52
2022/09/23 00:47:21;;;;;;;;;;;;;;;10.16;60.49;102016.94;4972083;28;20404;-52
2022/09/23 00:49:48;;;;;;;;;;;;;;;10.13;60.67;102027.56;4969566;28;19914;-53
2022/09/23 00:52:17;;;;;;;;;;;;;;;10.09;60.75;102020.69;4971465;28;19926;-54
2022/09/23 00:54:45;;;;;;;;;;;;;;;10.07;60.87;102015.50;4964803;28;20142;-53
2022/09/23 00:57:11;;;;;;;;;;;;;;;10.06;60.79;102006.72;4970005;28;19926;-55
2022/09/23 00:59:37;;;;;;;;;;;;;;;10.07;60.69;102016.34;4968763;28;20373;-52
2022/09/23 01:02:03;;;;;;;;;;;;;;;10.06;60.74;102008.50;4968274;28;19932;-54
2022/09/23 01:04:29;;;;;;;;;;;;;;;10.04;60.46;102008.56;4969182;28;20356;-55
2022/09/23 01:06:54;;;;;;;;;;;;;;;10.03;60.70;102005.97;4968770;28;20385;-52
2022/09/23 01:09:20;;;;;;;;;;;;;;;10.00;60.54;102000.81;4970912;28;19929;-53
2022/09/23 01:11:51;;;;;;;;;;;;;;;9.95;60.73;101995.72;4969005;28;19993;-53
2022/09/23 01:14:41;;;;;;;;;;;;;;;9.95;60.73;101995.72;4966224;28;19921;-53
2022/09/23 01:17:32;;;;;;;;;;;;;;;9.91;60.61;101991.47;4968371;28;19929;-54
2022/09/23 01:20:23;;;;;;;;;;;;;;;9.87;60.70;101995.16;4968095;28;19944;-55
2022/09/23 01:23:13;;;;;;;;;;;;;;;9.82;60.76;101984.81;4967450;28;19926;-52
2022/09/23 01:26:03;;;;;;;;;;;;;;;9.81;60.77;101993.59;4968154;28;20020;-53
2022/09/23 01:28:53;;;;;;;;;;;;;;;9.80;60.67;101975.22;4970807;28;19925;-54
2022/09/23 01:31:43;;;;;;;;;;;;;;;9.79;60.87;101979.66;4968633;28;19929;-53
2022/09/23 01:34:33;;;;;;;;;;;;;;;9.79;60.73;101976.16;4967182;28;20338;-53
2022/09/23 01:37:23;;;;;;;;;;;;;;;9.75;60.67;101978.91;4970726;28;19929;-56
2022/09/23 01:40:13;;;;;;;;;;;;;;;9.75;60.53;101972.78;4967863;28;20418;-52
2022/09/23 01:43:03;;;;;;;;;;;;;;;9.74;60.54;101976.31;4967408;28;20718;-52
2022/09/23 01:45:55;;;;;;;;;;;;;;;9.71;60.64;101971.16;4966303;28;19933;-52
2022/09/23 01:48:46;;;;;;;;;;;;;;;9.69;60.52;101973.84;4968766;28;20449;-56
2022/09/23 01:51:36;;;;;;;;;;;;;;;9.67;60.62;101970.41;4964942;28;20353;-52
2022/09/23 01:54:26;;;;;;;;;;;;;;;9.62;60.63;101967.06;4966868;28;19926;-54
2022/09/23 01:57:17;;;;;;;;;;;;;;;9.60;60.56;101967.13;4966024;28;19937;-53
2022/09/23 02:00:08;;;;;;;;;;;;;;;9.59;60.60;101967.19;4968396;28;19926;-52
2022/09/23 02:02:58;;;;;;;;;;;;;;;9.55;60.61;101962.94;4968589;28;19930;-55
2022/09/23 02:05:49;;;;;;;;;;;;;;;9.54;60.56;101969.13;4970272;28;19957;-55
2022/09/23 02:08:39;;;;;;;;;;;;;;;9.50;60.55;101963.09;4968300;28;19944;-52
2022/09/23 02:11:29;;;;;;;;;;;;;;;9.44;60.68;101958.91;4966140;28;20051;-53
2022/09/23 02:14:19;;;;;;;;;;;;;;;9.42;60.77;101957.22;4967387;28;19926;-53
2022/09/23 02:17:10;;;;;;;;;;;;;;;9.40;60.65;101956.44;4966234;28;19934;-54
2022/09/23 02:20:00;;;;;;;;;;;;;;;9.39;60.70;101955.56;4968634;28;19922;-55
2022/09/23 02:22:50;;;;;;;;;;;;;;;9.38;60.81;101947.72;4966916;28;20397;-53
2022/09/23 02:25:40;;;;;;;;;;;;;;;9.38;60.61;101945.97;4969852;28;19976;-55
2022/09/23 12:14:28;;;;;;;;;;;;;;;16.05;51.42;101637.63;5471461;23;20021;-52
2022/09/23 12:16:54;;;;;;;;;;;;;;;16.05;51.43;101637.63;4940832;28;20009;-55
2022/09/23 12:19:37;;;;;;;;;;;;;;;16.07;51.19;101639.25;4941512;28;19923;-52
2022/09/23 12:22:02;;;;;;;;;;;;;;;16.08;51.12;101635.66;4950646;28;19919;-53
2022/09/23 12:24:30;;;;;;;;;;;;;;;16.14;51.10;101637.88;4947042;28;20337;-53
2022/09/23 12:26:59;;;;;;;;;;;;;;;16.18;51.17;101630.56;4949930;28;19973;-53
2022/09/23 12:29:27;;;;;;;;;;;;;;;16.22;51.12;101632.03;4951939;28;19933;-55
2022/09/23 12:31:53;;;;;;;;;;;;;;;16.24;51.03;101618.69;4950035;28;21298;-54
2022/09/23 12:34:29;;;;;;;;;;;;;;;16.28;50.98;101622.81;4947715;28;19926;-55
2022/09/23 12:37:02;;;;;;;;;;;;;;;16.31;50.83;101619.94;4937933;28;19922;-54
2022/09/23 12:39:37;;;;;;;;;;;;;;;16.34;50.96;101616.22;4950695;28;19968;-55
2022/09/23 12:42:04;;;;;;;;;;;;;;;16.40;50.73;101619.34;4926731;28;19930;-54
2022/09/23 12:44:40;;;;;;;;;;;;;;;16.50;50.42;101618.69;4948617;28;19937;-55
2022/09/23 12:47:24;;;;;;;;;;;;;;;16.58;50.34;101614.56;4948182;28;19946;-54
2022/09/23 12:49:51;;;;;;;;;;;;;;;16.67;50.08;101609.53;4951502;28;19922;-56
2022/09/23 12:52:16;;;;;;;;;;;;;;;16.71;49.98;101614.53;4950639;28;19941;-55
2022/09/23 12:54:45;;;;;;;;;;;;;;;16.74;49.71;101606.34;4949368;28;20298;-55
2022/09/23 12:57:20;;;;;;;;;;;;;;;16.79;49.73;101605.19;4951955;28;19942;-55
2022/09/23 13:00:04;;;;;;;;;;;;;;;16.81;49.69;101608.59;4949807;28;19926;-54
2022/09/23 13:02:34;;;;;;;;;;;;;;;16.82;49.43;101603.16;4948572;28;20001;-57
2022/09/23 13:08:01;;;;;;;;;;;;;;;16.80;49.41;101596.25;4948773;28;19933;-56
2022/09/23 13:10:31;;;;;;;;;;;;;;;16.76;49.40;101591.16;4951478;28;19927;-55
2022/09/23 13:12:57;;;;;;;;;;;;;;;16.75;49.49;101589.44;4949550;28;20397;-54
2022/09/23 13:15:23;;;;;;;;;;;;;;;16.77;49.83;101584.03;4950254;28;19923;-54
2022/09/23 13:17:48;;;;;;;;;;;;;;;16.80;49.68;101582.97;4946470;28;19929;-56
2022/09/23 13:20:16;;;;;;;;;;;;;;;16.84;49.67;101585.28;4948932;28;19938;-55
2022/09/23 13:22:48;;;;;;;;;;;;;;;16.91;49.29;101580.38;4948625;28;19927;-55
2022/09/23 13:25:26;;;;;;;;;;;;;;;16.96;49.33;101567.66;4949216;28;20349;-56
2022/09/23 13:27:53;;;;;;;;;;;;;;;16.99;49.15;101564.78;4949311;28;19961;-54
2022/09/23 13:30:20;;;;;;;;;;;;;;;16.96;49.03;101562.34;4949812;28;20013;-55
2022/09/23 13:32:52;;;;;;;;;;;;;;;16.94;48.91;101566.88;4948941;28;19946;-55
2022/09/23 13:35:23;;;;;;;;;;;;;;;16.91;49.27;101562.63;4946924;28;19977;-54
2022/09/23 13:37:49;;;;;;;;;;;;;;;16.85;49.03;101555.09;4948397;28;20378;-55
2022/09/23 13:40:14;;;;;;;;;;;;;;;16.81;48.83;101558.91;4948656;28;19929;-56
2022/09/23 13:42:40;;;;;;;;;;;;;;;16.76;48.85;101553.94;4948577;28;20449;-56
2022/09/23 13:45:13;;;;;;;;;;;;;;;16.76;48.92;101543.31;4947046;28;19929;-53
2022/09/23 13:47:40;;;;;;;;;;;;;;;16.81;49.04;101542.13;4945281;28;19918;-57
2022/09/23 13:50:12;;;;;;;;;;;;;;;16.86;48.89;101538.19;4945590;28;19965;-54
2022/09/23 13:52:37;;;;;;;;;;;;;;;16.93;49.06;101530.63;4943709;28;19922;-55
2022/09/23 13:55:02;;;;;;;;;;;;;;;17.03;48.99;101530.84;4940160;28;19937;-55
2022/09/23 13:57:29;;;;;;;;;;;;;;;17.12;49.07;101529.31;4951260;28;19930;-55
2022/09/23 14:00:14;;;;;;;;;;;;;;;17.18;48.96;101529.72;4953800;28;20850;-54
2022/09/23 14:02:42;;;;;;;;;;;;;;;17.20;49.03;101532.25;4948817;28;19997;-55
2022/09/23 14:05:11;;;;;;;;;;;;;;;17.28;48.97;101523.72;4945748;28;19930;-55
2022/09/23 14:07:36;;;;;;;;;;;;;;;17.35;49.18;101523.13;4950312;28;19941;-57
2022/09/23 14:10:02;;;;;;;;;;;;;;;17.42;48.94;101528.00;4947385;28;19922;-55
2022/09/23 14:12:28;;;;;;;;;;;;;;;17.48;48.84;101525.75;4948535;28;19925;-55
2022/09/23 14:14:53;;;;;;;;;;;;;;;17.52;48.77;101526.34;4948291;28;19937;-53
2022/09/23 14:17:20;;;;;;;;;;;;;;;17.51;48.47;101514.00;4944850;28;19941;-55
2022/09/23 14:19:46;;;;;;;;;;;;;;;17.49;48.48;101514.13;4945766;28;20013;-56
2022/09/23 14:22:22;;;;;;;;;;;;;;;17.50;48.32;101509.66;4946728;28;20150;-58
2022/09/23 14:24:48;;;;;;;;;;;;;;;17.50;48.19;101507.00;4947653;28;20306;-58
2022/09/23 14:27:15;;;;;;;;;;;;;;;17.48;48.42;101511.56;4946916;28;20539;-55
2022/09/23 14:29:42;;;;;;;;;;;;;;;17.46;48.37;101510.88;4950360;28;19926;-52
2022/09/23 14:32:19;;;;;;;;;;;;;;;17.43;48.09;101511.94;4947391;28;19934;-57
2022/09/23 14:35:03;;;;;;;;;;;;;;;17.40;48.14;101506.00;4949846;28;20024;-56
2022/09/23 14:40:20;;;;;;;;;;;;;;;17.36;48.32;101494.75;4949683;28;19929;-53
2022/09/23 14:42:47;;;;;;;;;;;;;;;17.37;48.49;101501.75;4949788;28;19965;-54
2022/09/23 14:45:15;;;;;;;;;;;;;;;17.35;48.13;101490.38;4945121;28;19923;-53
2022/09/23 14:47:45;;;;;;;;;;;;;;;17.35;48.28;101493.03;4946095;28;19934;-56
2022/09/23 14:52:59;;;;;;;;;;;;;;;17.34;48.40;101486.84;4945286;28;19969;-54
2022/09/23 14:55:26;;;;;;;;;;;;;;;17.33;48.10;101481.66;4949596;28;20409;-54
2022/09/23 14:57:59;;;;;;;;;;;;;;;17.32;48.12;101482.63;4946730;28;20017;-53
2022/09/23 15:00:25;;;;;;;;;;;;;;;17.31;48.40;101476.47;4948817;28;19918;-54
2022/09/23 15:02:58;;;;;;;;;;;;;;;17.31;48.40;101476.47;4947468;28;19968;-53
2022/09/23 15:05:30;;;;;;;;;;;;;;;17.30;48.28;101472.13;4943321;28;20001;-53
2022/09/23 15:07:58;;;;;;;;;;;;;;;17.29;48.33;101472.22;4944237;28;19929;-53
2022/09/23 15:10:29;;;;;;;;;;;;;;;17.28;48.30;101465.19;4948821;28;20014;-53
2022/09/23 15:13:01;;;;;;;;;;;;;;;17.25;48.28;101466.28;4941063;28;19932;-54
2022/09/23 15:15:29;;;;;;;;;;;;;;;17.24;48.37;101463.75;4942489;28;19958;-55
2022/09/23 15:18:00;;;;;;;;;;;;;;;17.23;48.33;101464.72;4944782;28;20037;-56
2022/09/23 15:20:26;;;;;;;;;;;;;;;17.22;48.26;101466.50;4944928;28;20289;-54
2022/09/23 15:22:53;;;;;;;;;;;;;;;17.24;48.53;101467.25;4944656;28;20013;-54
2022/09/23 15:25:20;;;;;;;;;;;;;;;17.28;48.42;101465.19;4945493;28;19993;-53
2022/09/23 15:27:59;;;;;;;;;;;;;;;17.32;48.44;101467.50;4947705;28;20366;-54
2022/09/23 15:30:25;;;;;;;;;;;;;;;17.37;48.29;101464.53;4950115;28;19922;-54
2022/09/23 15:32:50;;;;;;;;;;;;;;;17.45;48.23;101469.25;4929668;28;19926;-53
2022/09/23 15:35:17;;;;;;;;;;;;;;;17.50;47.98;101464.44;4945492;28;20527;-53
2022/09/23 15:37:44;;;;;;;;;;;;;;;17.56;48.14;101463.97;4944583;28;20000;-53
2022/09/23 15:40:18;;;;;;;;;;;;;;;17.59;47.76;101462.88;4947808;28;19933;-54
2022/09/23 15:42:50;;;;;;;;;;;;;;;17.61;47.94;101467.13;4946533;28;20730;-55
2022/09/23 15:45:16;;;;;;;;;;;;;;;17.61;47.68;101469.81;4945168;28;19933;-54
2022/09/23 15:47:41;;;;;;;;;;;;;;;17.58;47.89;101469.16;4948261;28;19926;-53
2022/09/23 15:50:06;;;;;;;;;;;;;;;17.56;47.79;101469.28;4946178;28;19984;-54
2022/09/23 15:52:32;;;;;;;;;;;;;;;17.50;47.74;101470.63;4949326;28;19937;-53
2022/09/23 15:54:57;;;;;;;;;;;;;;;17.44;47.84;101464.91;4945827;28;19930;-53
2022/09/23 15:57:24;;;;;;;;;;;;;;;17.36;48.14;101468.16;4939251;28;19950;-54
2022/09/23 15:59:50;;;;;;;;;;;;;;;17.28;48.22;101470.50;4938886;28;19922;-53
2022/09/23 16:02:21;;;;;;;;;;;;;;;17.20;48.33;101471.09;4947446;28;20696;-53
2022/09/23 16:04:49;;;;;;;;;;;;;;;17.11;48.31;101466.47;4936848;28;20684;-55
2022/09/23 16:07:15;;;;;;;;;;;;;;;17.01;48.40;101464.50;4939639;28;19972;-53
2022/09/23 16:09:41;;;;;;;;;;;;;;;16.94;48.66;101465.88;4945686;28;19930;-54
2022/09/23 16:12:08;;;;;;;;;;;;;;;16.85;48.62;101461.22;4942880;28;19927;-54
2022/09/23 16:14:33;;;;;;;;;;;;;;;16.76;48.94;101460.94;4942330;28;19930;-54
2022/09/23 16:16:58;;;;;;;;;;;;;;;16.69;49.07;101458.81;4934009;28;19962;-54
2022/09/23 16:19:24;;;;;;;;;;;;;;;16.63;49.07;101456.63;4941126;28;19941;-53
2022/09/23 16:21:49;;;;;;;;;;;;;;;16.54;49.27;101455.47;4947650;28;20028;-55
2022/09/23 16:24:16;;;;;;;;;;;;;;;16.45;49.46;101451.66;4944631;28;20345;-52
2022/09/23 16:26:42;;;;;;;;;;;;;;;16.36;49.66;101458.47;4944599;28;19956;-53
2022/09/23 16:29:09;;;;;;;;;;;;;;;16.27;49.81;101448.50;4940666;28;19931;-54
2022/09/23 16:31:34;;;;;;;;;;;;;;;16.19;49.99;101453.50;4939419;28;19922;-53
2022/09/23 16:34:01;;;;;;;;;;;;;;;16.12;50.14;101456.59;4925284;28;20374;-53
2022/09/23 16:36:29;;;;;;;;;;;;;;;16.03;50.24;101451.94;4943701;28;19926;-53
2022/09/23 16:38:55;;;;;;;;;;;;;;;15.97;50.44;101455.00;4945372;28;19931;-51
2022/09/23 16:41:22;;;;;;;;;;;;;;;15.90;50.47;101448.44;4937663;28;19928;-52
2022/09/23 16:43:48;;;;;;;;;;;;;;;15.81;50.73;101452.53;4937025;28;19926;-53
2022/09/23 16:46:14;;;;;;;;;;;;;;;15.75;51.00;101450.28;4939722;28;20291;-53
2022/09/23 16:48:40;;;;;;;;;;;;;;;15.68;51.00;101448.06;4944691;28;19928;-52
2022/09/23 16:51:14;;;;;;;;;;;;;;;15.63;50.99;101447.53;4938339;28;19926;-52
2022/09/23 16:53:41;;;;;;;;;;;;;;;15.56;51.25;101448.91;4947706;28;19922;-53
2022/09/23 16:56:08;;;;;;;;;;;;;;;15.49;51.39;101456.44;4944588;28;20020;-53
2022/09/23 16:58:34;;;;;;;;;;;;;;;15.42;51.61;101449.84;4949574;28;19922;-54
2022/09/23 17:03:46;;;;;;;;;;;;;;;15.29;51.90;101444.50;4945259;28;20004;-53
2022/09/23 17:06:12;;;;;;;;;;;;;;;15.23;52.21;101443.09;4941297;28;19942;-54
2022/09/23 17:08:39;;;;;;;;;;;;;;;15.17;52.44;101443.53;4943844;28;19926;-54
2022/09/23 17:11:05;;;;;;;;;;;;;;;15.12;52.50;101444.78;4937863;28;20401;-53
2022/09/23 17:13:31;;;;;;;;;;;;;;;15.06;52.76;101440.72;4944744;28;19926;-53
2022/09/23 17:15:56;;;;;;;;;;;;;;;15.00;52.88;101433.19;4939698;28;19926;-52
2022/09/23 17:18:22;;;;;;;;;;;;;;;14.94;53.09;101435.28;4932114;28;19926;-54
2022/09/23 17:21:01;;;;;;;;;;;;;;;14.87;53.07;101431.34;4937976;28;19941;-53
2022/09/23 17:23:27;;;;;;;;;;;;;;;14.84;53.26;101439.47;4941695;28;19933;-55
2022/09/23 17:25:53;;;;;;;;;;;;;;;14.79;53.37;101433.63;4937547;28;21060;-54
2022/09/23 17:28:19;;;;;;;;;;;;;;;14.75;53.54;101432.09;4939945;28;19973;-54
2022/09/23 17:30:44;;;;;;;;;;;;;;;14.70;53.59;101428.91;4937367;28;20169;-55
2022/09/23 17:33:10;;;;;;;;;;;;;;;14.64;53.72;101430.97;4935678;28;20289;-52
2022/09/23 17:35:39;;;;;;;;;;;;;;;14.59;54.08;101425.13;4941509;28;19930;-52
2022/09/23 17:38:04;;;;;;;;;;;;;;;14.55;54.06;101420.97;4939292;28;19985;-52
2022/09/23 17:40:29;;;;;;;;;;;;;;;14.51;54.09;101414.16;4935627;28;19930;-53
2022/09/23 17:42:55;;;;;;;;;;;;;;;14.47;54.30;101413.53;4937211;28;20286;-53
2022/09/23 17:45:20;;;;;;;;;;;;;;;14.44;54.38;101423.47;4940517;28;20003;-54
2022/09/23 17:47:50;;;;;;;;;;;;;;;14.40;54.53;101417.50;4942047;28;20318;-54
2022/09/23 17:50:15;;;;;;;;;;;;;;;14.36;54.57;101417.78;4937280;28;20596;-53
2022/09/23 17:52:41;;;;;;;;;;;;;;;14.31;54.87;101418.91;4919901;28;19927;-53
2022/09/23 17:55:07;;;;;;;;;;;;;;;14.28;54.98;101413.84;4935506;28;20005;-54
2022/09/23 17:57:32;;;;;;;;;;;;;;;14.26;54.95;101415.72;4937979;28;19934;-54
2022/09/23 17:59:58;;;;;;;;;;;;;;;14.25;55.04;101408.75;4934195;28;19961;-55
2022/09/23 18:02:23;;;;;;;;;;;;;;;14.22;55.11;101414.22;4937324;28;19931;-52
2022/09/23 18:04:48;;;;;;;;;;;;;;;14.21;55.23;101409.88;4934674;28;20511;-54
2022/09/23 18:07:14;;;;;;;;;;;;;;;14.20;55.27;101410.81;4939101;28;19941;-53
2022/09/23 18:09:39;;;;;;;;;;;;;;;14.19;55.35;101409.09;4942923;29;19923;-53
2022/09/23 18:12:04;;;;;;;;;;;;;;;14.18;55.37;101410.06;4941595;28;20005;-56
2022/09/23 18:14:30;;;;;;;;;;;;;;;14.15;55.39;101407.59;4937155;28;19930;-53
2022/09/23 18:16:55;;;;;;;;;;;;;;;14.13;55.48;101414.81;4941799;28;19923;-53
2022/09/23 18:19:22;;;;;;;;;;;;;;;14.09;55.74;101413.28;4946321;29;20013;-53
2022/09/23 18:21:49;;;;;;;;;;;;;;;14.05;55.74;101406.47;4944518;28;19918;-52
2022/09/23 18:24:15;;;;;;;;;;;;;;;14.01;56.02;101411.13;4937868;28;20012;-54
2022/09/23 18:26:41;;;;;;;;;;;;;;;13.96;56.09;101406.09;4940844;28;20410;-53
2022/09/23 18:29:07;;;;;;;;;;;;;;;13.93;56.30;101408.06;4938626;28;19937;-52
2022/09/23 18:31:34;;;;;;;;;;;;;;;13.91;56.39;101418.75;4938590;29;19930;-53
2022/09/23 18:34:05;;;;;;;;;;;;;;;13.85;56.42;101417.34;4942404;28;21127;-52
2022/09/23 18:36:31;;;;;;;;;;;;;;;13.82;56.54;101411.41;4945774;28;19930;-53
2022/09/23 18:38:57;;;;;;;;;;;;;;;13.77;56.83;101416.09;4941271;29;19947;-53
2022/09/23 18:41:22;;;;;;;;;;;;;;;13.74;56.76;101411.00;4942610;28;20399;-54
2022/09/23 18:43:48;;;;;;;;;;;;;;;13.69;56.83;101414.75;4938873;28;20437;-53
2022/09/23 18:46:17;;;;;;;;;;;;;;;13.67;57.03;101403.44;4937942;28;19982;-54
2022/09/23 18:51:28;;;;;;;;;;;;;;;13.60;57.22;101407.38;4938925;28;20369;-54
2022/09/23 18:53:58;;;;;;;;;;;;;;;13.56;57.19;101400.56;4940056;28;19968;-53
2022/09/23 18:56:25;;;;;;;;;;;;;;;13.54;57.35;101407.75;4933486;28;19926;-52
2022/09/23 18:58:51;;;;;;;;;;;;;;;13.52;57.34;101402.56;4938543;28;19926;-54
2022/09/23 19:01:18;;;;;;;;;;;;;;;13.50;57.54;101407.09;4932107;28;19930;-54
2022/09/23 19:03:44;;;;;;;;;;;;;;;13.46;57.52;101405.56;4937395;28;20402;-53
2022/09/23 19:06:10;;;;;;;;;;;;;;;13.40;57.71;101401.50;4933833;28;22325;-53
2022/09/23 19:08:36;;;;;;;;;;;;;;;13.38;57.86;101399.84;4937212;28;19978;-54
2022/09/23 19:11:03;;;;;;;;;;;;;;;13.35;57.81;101408.81;4944257;28;19944;-53
2022/09/23 19:13:29;;;;;;;;;;;;;;;13.34;57.87;101411.53;4940711;28;20290;-53
2022/09/23 19:15:55;;;;;;;;;;;;;;;13.31;57.97;101402.00;4944170;28;19962;-55
2022/09/23 19:18:20;;;;;;;;;;;;;;;13.29;58.10;101388.03;4935115;28;19942;-52
2022/09/23 19:20:52;;;;;;;;;;;;;;;13.28;58.14;101399.53;4924197;28;19926;-53
2022/09/23 19:23:18;;;;;;;;;;;;;;;13.26;58.27;101399.63;4943226;28;21538;-52
2022/09/23 19:25:43;;;;;;;;;;;;;;;13.24;58.25;101401.53;4947456;28;19952;-52
2022/09/23 19:28:09;;;;;;;;;;;;;;;13.22;58.33;101402.56;4939163;28;19931;-53
2022/09/23 19:30:34;;;;;;;;;;;;;;;13.20;58.55;101394.69;4933669;28;19980;-53
2022/09/23 19:33:00;;;;;;;;;;;;;;;13.20;58.55;101404.44;4931388;28;19930;-53
2022/09/23 19:35:25;;;;;;;;;;;;;;;13.19;58.45;101413.31;4938196;28;19954;-53
2022/09/23 19:37:50;;;;;;;;;;;;;;;13.18;58.66;101408.97;4940675;28;20025;-55
2022/09/23 19:40:16;;;;;;;;;;;;;;;13.16;58.69;101410.84;4937249;28;19926;-53
2022/09/23 19:42:41;;;;;;;;;;;;;;;13.15;58.52;101406.50;4942023;29;20455;-52
2022/09/23 19:45:07;;;;;;;;;;;;;;;13.13;58.80;101400.44;4938295;28;20305;-54
2022/09/23 19:47:32;;;;;;;;;;;;;;;13.11;58.89;101401.38;4945443;28;19919;-54
2022/09/23 19:49:58;;;;;;;;;;;;;;;13.10;58.84;101399.66;4938810;28;20298;-53
2022/09/23 19:52:23;;;;;;;;;;;;;;;13.08;58.93;101396.25;4936479;28;19926;-52
2022/09/23 19:54:48;;;;;;;;;;;;;;;13.06;59.04;101392.00;4942292;28;19922;-54
2022/09/23 19:57:14;;;;;;;;;;;;;;;13.03;59.04;101392.19;4942557;28;19931;-53
2022/09/23 19:59:40;;;;;;;;;;;;;;;13.03;59.17;101393.06;4948024;28;19990;-53
2022/09/23 20:02:07;;;;;;;;;;;;;;;13.02;59.06;101391.34;4944257;28;20338;-56
2022/09/23 20:04:34;;;;;;;;;;;;;;;13.03;59.14;101389.53;4942862;28;20005;-53
2022/09/23 20:07:01;;;;;;;;;;;;;;;13.01;59.24;101389.66;4937113;28;20413;-53
2022/09/23 20:09:27;;;;;;;;;;;;;;;13.01;59.14;101384.38;4939509;28;19922;-53
2022/09/23 20:11:53;;;;;;;;;;;;;;;13.00;59.29;101387.94;4942828;28;20321;-53
2022/09/23 20:14:19;;;;;;;;;;;;;;;12.99;59.34;101386.25;4941304;28;19927;-52
2022/09/23 20:16:45;;;;;;;;;;;;;;;12.98;59.25;101388.97;4948381;28;20070;-52
2022/09/23 20:19:10;;;;;;;;;;;;;;;12.96;59.37;101383.75;4944159;28;19926;-52
2022/09/23 20:21:35;;;;;;;;;;;;;;;12.95;59.36;101382.06;4945762;28;19927;-54
2022/09/23 20:24:04;;;;;;;;;;;;;;;12.92;59.60;101377.81;4942310;28;20473;-57
2022/09/23 20:29:13;;;;;;;;;;;;;;;12.90;59.57;101376.22;4938495;28;20060;-55
2022/09/23 20:31:40;;;;;;;;;;;;;;;12.87;59.85;101377.22;4944271;28;19998;-53
2022/09/23 20:34:05;;;;;;;;;;;;;;;12.86;59.88;101379.97;4937304;28;19922;-54
2022/09/23 20:36:31;;;;;;;;;;;;;;;12.84;59.92;101371.28;4932963;28;19926;-58
2022/09/23 20:38:59;;;;;;;;;;;;;;;12.84;59.81;101372.13;4936919;28;20950;-54
2022/09/23 20:41:25;;;;;;;;;;;;;;;12.83;60.07;101369.56;4943617;28;19926;-53
2022/09/23 20:43:52;;;;;;;;;;;;;;;12.86;59.93;101374.69;4934060;28;19926;-54
2022/09/23 20:46:17;;;;;;;;;;;;;;;12.86;59.80;101366.75;4941033;29;19946;-56
2022/09/23 20:48:45;;;;;;;;;;;;;;;12.85;59.98;101363.28;4936460;28;19931;-55
2022/09/23 20:51:10;;;;;;;;;;;;;;;12.85;59.84;101367.69;4941026;29;19927;-54
2022/09/23 20:53:36;;;;;;;;;;;;;;;12.86;60.02;101364.13;4946601;28;19927;-57
2022/09/23 20:56:04;;;;;;;;;;;;;;;12.87;59.88;101363.19;4948226;29;20313;-56
2022/09/23 20:58:29;;;;;;;;;;;;;;;12.84;60.04;101360.72;4941763;29;20016;-54
2022/09/23 21:01:00;;;;;;;;;;;;;;;12.84;59.94;101371.28;4941196;29;19926;-53
2022/09/23 21:03:26;;;;;;;;;;;;;;;12.81;60.04;101362.59;4928370;28;19919;-57
2022/09/23 21:05:52;;;;;;;;;;;;;;;12.80;60.02;101366.16;4938550;28;19926;-56
2022/09/23 21:08:17;;;;;;;;;;;;;;;12.81;60.24;101359.94;4941508;28;20290;-54
2022/09/23 21:10:42;;;;;;;;;;;;;;;12.79;60.15;101359.16;4947730;28;19929;-56
2022/09/23 21:13:08;;;;;;;;;;;;;;;12.81;60.17;101361.75;4942971;28;20379;-56
2022/09/23 21:15:34;;;;;;;;;;;;;;;12.80;60.34;101366.16;4930850;28;19953;-57
2022/09/23 21:17:59;;;;;;;;;;;;;;;12.81;60.26;101357.31;4950579;28;19946;-57
2022/09/23 21:20:24;;;;;;;;;;;;;;;12.83;60.30;101365.16;4942887;28;19953;-57
2022/09/23 21:22:50;;;;;;;;;;;;;;;12.85;60.36;101351.84;4945578;29;19919;-55
2022/09/23 21:25:15;;;;;;;;;;;;;;;12.86;60.31;101350.91;4941995;28;19978;-53
2022/09/23 21:27:40;;;;;;;;;;;;;;;12.85;60.48;101354.50;4940526;28;19937;-56
2022/09/23 21:30:06;;;;;;;;;;;;;;;12.83;60.46;101353.72;4941589;29;19992;-54
2022/09/23 21:32:31;;;;;;;;;;;;;;;12.83;60.31;101354.59;4936370;28;20009;-54
2022/09/23 21:34:56;;;;;;;;;;;;;;;12.85;60.51;101363.28;4942836;29;19944;-53
2022/09/23 21:37:22;;;;;;;;;;;;;;;12.84;60.33;101364.22;4940736;29;20298;-54
2022/09/23 21:40:54;;;;;;;;;;;;;;;12.84;60.47;101360.72;4940553;29;20382;-56
2022/09/23 21:42:32;;;;;;;;;;;;;;;12.84;60.36;101355.44;4941823;28;20412;-56
2022/09/23 21:44:58;;;;;;;;;;;;;;;12.83;60.44;101359.00;4940186;28;19981;-56
2022/09/23 21:47:24;;;;;;;;;;;;;;;12.83;60.46;101359.00;4937272;29;19926;-57
2022/09/23 21:49:50;;;;;;;;;;;;;;;12.81;60.59;101348.53;4940017;29;20013;-56
2022/09/23 21:52:15;;;;;;;;;;;;;;;12.79;60.59;101345.97;4939937;28;20009;-54
2022/09/23 21:54:40;;;;;;;;;;;;;;;12.80;60.80;101349.47;4941018;28;19918;-53
2022/09/23 21:57:05;;;;;;;;;;;;;;;12.79;60.64;101353.06;4943398;28;19926;-55
2022/09/23 21:59:31;;;;;;;;;;;;;;;12.76;60.88;101354.09;4935589;28;19927;-55
2022/09/23 22:01:57;;;;;;;;;;;;;;;12.75;60.90;101355.03;4936553;28;20418;-53
2022/09/23 22:04:22;;;;;;;;;;;;;;;12.73;60.95;101354.25;4942255;28;19929;-56
2022/09/23 22:06:48;;;;;;;;;;;;;;;12.73;61.06;101350.75;4919676;28;19931;-54
2022/09/23 22:09:15;;;;;;;;;;;;;;;12.70;60.90;101349.16;4940192;28;19936;-54
2022/09/23 22:14:24;;;;;;;;;;;;;;;12.69;60.88;101344.81;4940737;28;19933;-53
2022/09/23 22:16:52;;;;;;;;;;;;;;;12.68;61.06;101339.63;4941437;28;19922;-55
2022/09/23 22:19:18;;;;;;;;;;;;;;;12.67;60.89;101344.03;4946369;29;19923;-54
2022/09/23 22:21:44;;;;;;;;;;;;;;;12.65;60.83;101335.34;4945508;28;19923;-54
2022/09/23 22:24:10;;;;;;;;;;;;;;;12.64;60.82;101336.28;4943808;28;19918;-53
2022/09/23 22:26:39;;;;;;;;;;;;;;;12.63;60.98;101339.84;4940144;28;19927;-53
2022/09/23 22:34:33;;;;;;;;;;;;;;;12.54;61.13;101332.47;4940511;28;20013;-54
2022/09/23 22:36:59;;;;;;;;;;;;;;;12.53;61.26;101330.78;4940880;28;20024;-56
2022/09/23 22:39:24;;;;;;;;;;;;;;;12.52;61.02;101329.06;4934878;28;20361;-56
2022/09/23 22:41:50;;;;;;;;;;;;;;;12.49;61.12;101323.03;4935345;29;20290;-54
2022/09/23 22:44:19;;;;;;;;;;;;;;;12.48;61.17;101318.66;4941683;28;20840;-55
2022/09/23 22:46:47;;;;;;;;;;;;;;;12.49;61.33;101324.81;4938596;28;19922;-52
2022/09/23 22:49:13;;;;;;;;;;;;;;;12.50;61.19;101329.16;4940707;29;19930;-56
2022/09/23 22:51:39;;;;;;;;;;;;;;;12.50;61.23;101326.53;4942768;28;20421;-54
2022/09/23 22:54:05;;;;;;;;;;;;;;;12.49;61.11;101325.66;4942404;28;19918;-55
2022/09/23 22:56:30;;;;;;;;;;;;;;;12.48;60.90;101313.41;4939317;28;19965;-57
2022/09/23 22:58:58;;;;;;;;;;;;;;;12.49;60.96;101320.38;4939080;29;20004;-57